Time;durP1;ratioP1;P1;durP2;ratioP2;P2;SDS_P1;SDS_P2;PMS_P1;PMS_P2;Temp;Humidity;BMP_temperature;BMP_pressure;BME280_temperature;BME280_humidity;BME280_pressure;Samples;Min_cycle;Max_cycle;Signal;HPM_P1;HPM_P2
2022/03/04 00:00:37;;;;;;;;;54.25;43.00;;;;;13.87;59.31;101061.88;2129832;27;47252;-54
2022/03/04 00:01:38;;;;;;;;;57.25;46.00;;;;;13.88;59.15;101065.41;2121490;27;47185;-54
2022/03/04 00:02:38;;;;;;;;;57.00;47.00;;;;;13.88;59.12;101066.28;2120979;27;47574;-53
2022/03/04 00:03:39;;;;;;;;;61.50;47.50;;;;;13.89;59.41;101067.16;2130417;27;47897;-54
2022/03/04 00:04:39;;;;;;;;;54.50;45.75;;;;;13.90;59.21;101072.44;2130220;27;46654;-51
2022/03/04 00:05:40;;;;;;;;;55.00;46.00;;;;;13.91;59.26;101075.97;2130344;27;47658;-54
2022/03/04 00:06:41;;;;;;;;;59.80;48.20;;;;;13.91;59.39;101074.19;2130381;27;47939;-52
2022/03/04 00:07:41;;;;;;;;;56.50;46.25;;;;;13.91;59.36;101075.97;2130470;27;47954;-54
2022/03/04 00:08:42;;;;;;;;;56.50;46.25;;;;;13.91;59.20;101079.53;2130182;27;47560;-49
2022/03/04 00:09:42;;;;;;;;;57.50;46.00;;;;;13.92;59.27;101077.72;2130406;27;47665;-51
2022/03/04 00:10:43;;;;;;;;;57.25;46.00;;;;;13.91;59.33;101071.53;2130175;27;47872;-53
2022/03/04 00:11:43;;;;;;;;;58.75;47.75;;;;;13.91;59.14;101074.19;2103501;28;47436;-53
2022/03/04 00:12:43;;;;;;;;;55.75;46.00;;;;;13.93;59.49;101071.47;2103635;28;47522;-54
2022/03/04 00:13:44;;;;;;;;;54.00;44.50;;;;;13.93;59.31;101071.47;2130276;27;47432;-54
2022/03/04 00:14:45;;;;;;;;;58.50;47.25;;;;;13.92;59.39;101073.25;2130312;27;47982;-50
2022/03/04 00:15:45;;;;;;;;;60.00;49.25;;;;;13.93;59.31;101075.00;2130321;27;47782;-52
2022/03/04 00:16:46;;;;;;;;;61.25;48.75;;;;;13.93;59.24;101075.00;2129421;27;47400;-50
2022/03/04 00:17:46;;;;;;;;;61.00;49.00;;;;;13.92;59.38;101073.25;2121686;27;47797;-52
2022/03/04 00:19:06;;;;;;;;;59.00;48.00;;;;;13.93;59.38;101076.81;2121592;27;47997;-52
2022/03/04 00:20:08;;;;;;;;;61.00;50.40;;;;;13.92;59.43;101078.59;2121629;27;47550;-52
2022/03/04 00:21:09;;;;;;;;;60.00;49.80;;;;;13.91;59.55;101079.53;2121888;27;48016;-50
2022/03/04 00:22:09;;;;;;;;;60.20;47.60;;;;;13.90;59.56;101075.09;2112463;27;47396;-51
2022/03/04 00:23:10;;;;;;;;;57.00;46.25;;;;;13.90;59.35;101076.91;2117448;27;48030;-53
2022/03/04 00:24:11;;;;;;;;;58.50;46.75;;;;;13.89;59.38;101073.38;2130456;27;47716;-52
2022/03/04 00:25:12;;;;;;;;;59.00;47.80;;;;;13.90;59.54;101079.56;2129999;27;47290;-53
2022/03/04 00:26:12;;;;;;;;;61.00;50.00;;;;;13.89;59.35;101078.69;2126511;27;48228;-51
2022/03/04 00:27:12;;;;;;;;;57.00;46.25;;;;;13.89;59.36;101080.50;2121546;27;47523;-50
2022/03/04 00:28:13;;;;;;;;;61.75;49.75;;;;;13.89;59.08;101078.69;2121608;27;47501;-49
2022/03/04 00:29:14;;;;;;;;;60.50;50.00;;;;;13.89;59.51;101080.50;2123857;27;47426;-51
2022/03/04 00:30:15;;;;;;;;;61.60;49.40;;;;;13.88;59.57;101079.63;2129924;27;47719;-51
2022/03/04 00:31:15;;;;;;;;;63.00;50.25;;;;;13.88;59.38;101078.75;2130138;27;47563;-50
2022/03/04 00:32:16;;;;;;;;;60.75;48.50;;;;;13.87;59.49;101077.00;2124389;27;47468;-53
2022/03/04 00:33:16;;;;;;;;;60.50;48.00;;;;;13.87;59.80;101077.00;2121799;27;47312;-53
2022/03/04 00:34:17;;;;;;;;;58.75;48.25;;;;;13.87;59.69;101077.88;2121332;27;47223;-55
2022/03/04 00:35:18;;;;;;;;;62.50;50.00;;;;;13.87;59.60;101079.66;2121558;27;47681;-52
2022/03/04 00:36:22;;;;;;;;;56.25;45.75;;;;;13.87;59.53;101082.34;2121517;27;47584;-50
2022/03/04 00:37:22;;;;;;;;;61.40;49.20;;;;;13.86;59.75;101078.78;2121563;27;48019;-54
2022/03/04 00:38:23;;;;;;;;;62.50;50.00;;;;;13.87;59.73;101077.00;2121396;27;47955;-51
2022/03/04 00:39:23;;;;;;;;;61.00;49.50;;;;;13.87;59.71;101087.69;2121810;27;47746;-53
2022/03/04 00:40:24;;;;;;;;;59.75;48.25;;;;;13.86;59.55;101081.47;2121824;27;45118;-54
2022/03/04 00:41:24;;;;;;;;;62.00;48.00;;;;;13.87;59.51;101087.69;2121530;27;48004;-52
2022/03/04 00:42:27;;;;;;;;;63.00;50.25;;;;;13.86;59.81;101078.78;2121802;27;47465;-52
2022/03/04 00:43:28;;;;;;;;;60.60;48.80;;;;;13.86;59.57;101080.59;2121533;27;48152;-50
2022/03/04 00:44:28;;;;;;;;;60.25;49.00;;;;;13.87;59.60;101077.00;2121213;27;47471;-55
2022/03/04 00:45:28;;;;;;;;;60.25;49.00;;;;;13.87;59.72;101074.34;2121445;27;47427;-49
2022/03/04 00:46:29;;;;;;;;;63.00;49.75;;;;;13.86;59.78;101070.78;2121472;27;48100;-51
2022/03/04 00:47:30;;;;;;;;;60.75;48.75;;;;;13.87;59.74;101071.66;2112522;27;47112;-53
2022/03/04 00:48:31;;;;;;;;;60.40;49.00;;;;;13.88;59.63;101076.09;2111980;27;48115;-53
2022/03/04 00:49:31;;;;;;;;;61.25;47.25;;;;;13.86;59.75;101075.25;2121404;27;47826;-49
2022/03/04 00:50:31;;;;;;;;;60.00;48.75;;;;;13.86;59.97;101076.13;2121306;27;47401;-52
2022/03/04 00:51:32;;;;;;;;;56.75;45.50;;;;;13.85;59.74;101066.38;2121196;27;48326;-53
2022/03/04 00:52:34;;;;;;;;;60.00;50.00;;;;;13.84;59.73;101067.28;2122138;27;45363;-49
2022/03/04 00:53:34;;;;;;;;;59.20;48.20;;;;;13.85;59.70;101066.38;2121421;27;47896;-48
2022/03/04 00:54:35;;;;;;;;;61.25;49.00;;;;;13.84;59.76;101062.81;2121443;27;48214;-53
2022/03/04 00:55:37;;;;;;;;;57.00;47.50;;;;;13.84;59.89;101061.94;2121431;27;47175;-52
2022/03/04 00:56:38;;;;;;;;;60.00;48.20;;;;;13.84;59.79;101061.94;2121687;27;46739;-51
2022/03/04 00:57:38;;;;;;;;;58.00;47.75;;;;;13.84;59.83;101065.47;2121331;27;47701;-51
2022/03/04 00:58:40;;;;;;;;;58.75;47.25;;;;;13.84;59.74;101060.13;2121239;27;48158;-51
2022/03/04 00:59:41;;;;;;;;;58.40;48.20;;;;;13.84;59.84;101060.13;2121391;27;47381;-52
2022/03/04 01:00:41;;;;;;;;;63.00;49.75;;;;;13.85;59.75;101061.03;2121130;27;47755;-53
2022/03/04 01:01:41;;;;;;;;;61.50;50.50;;;;;13.85;59.80;101055.72;2121523;27;48144;-53
2022/03/04 01:02:42;;;;;;;;;59.50;47.25;;;;;13.85;59.81;101058.38;2121441;27;47741;-51
2022/03/04 01:03:42;;;;;;;;;63.25;49.00;;;;;13.84;59.64;101064.59;2121476;27;47886;-51
2022/03/04 01:04:43;;;;;;;;;63.25;49.50;;;;;13.84;59.89;101064.59;2121338;27;47954;-51
2022/03/04 01:05:43;;;;;;;;;60.75;48.00;;;;;13.83;59.60;101061.06;2121640;27;47760;-50
2022/03/04 01:06:44;;;;;;;;;60.00;48.25;;;;;13.83;59.66;101071.72;2121305;27;48112;-51
2022/03/04 01:07:44;;;;;;;;;61.75;49.00;;;;;13.82;59.76;101072.66;2121261;27;46733;-53
2022/03/04 01:08:45;;;;;;;;;62.50;49.25;;;;;13.82;59.84;101071.78;2121494;27;47105;-51
2022/03/04 01:09:45;;;;;;;;;58.75;47.25;;;;;13.81;59.83;101067.38;2121287;27;47866;-51
2022/03/04 01:10:46;;;;;;;;;66.50;52.00;;;;;13.80;59.67;101076.28;2121798;27;47568;-50
2022/03/04 01:11:46;;;;;;;;;76.00;68.75;;;;;13.79;60.15;101067.41;2120966;27;47360;-56
2022/03/04 01:12:47;;;;;;;;;75.25;64.50;;;;;13.79;60.08;101078.09;2121365;27;47965;-52
2022/03/04 01:13:47;;;;;;;;;82.00;75.50;;;;;13.80;59.93;101081.63;2121234;27;47969;-53
2022/03/04 01:14:48;;;;;;;;;69.75;58.75;;;;;13.79;59.75;101074.56;2121168;27;47901;-50
2022/03/04 01:15:48;;;;;;;;;73.25;60.25;;;;;13.79;59.94;101071.88;2102629;28;47428;-51
2022/03/04 01:16:49;;;;;;;;;73.00;62.00;;;;;13.79;59.86;101067.41;2102882;28;47875;-53
2022/03/04 01:17:49;;;;;;;;;76.00;67.75;;;;;13.79;59.81;101067.41;2121227;27;47488;-51
2022/03/04 01:18:50;;;;;;;;;73.75;63.50;;;;;13.79;59.98;101072.75;2121109;27;47480;-51
2022/03/04 01:19:50;;;;;;;;;71.75;61.00;;;;;13.78;60.10;101073.69;2121090;27;47816;-54
2022/03/04 01:20:51;;;;;;;;;71.25;58.00;;;;;13.76;59.91;101067.53;2111982;27;47444;-50
2022/03/04 01:21:51;;;;;;;;;67.50;53.25;;;;;13.77;59.99;101074.59;2111787;27;47957;-49
2022/03/04 01:22:52;;;;;;;;;63.00;51.00;;;;;13.77;59.81;101077.25;2111926;27;47664;-53
2022/03/04 01:23:52;;;;;;;;;65.50;51.00;;;;;13.77;60.11;101071.06;2113967;27;47403;-50
2022/03/04 01:24:53;;;;;;;;;60.00;48.25;;;;;13.77;59.92;101073.72;2129928;27;47761;-50
2022/03/04 01:25:55;;;;;;;;;62.25;50.25;;;;;13.76;60.08;101067.53;2124911;27;47879;-53
2022/03/04 01:26:55;;;;;;;;;57.60;47.00;;;;;13.77;59.98;101068.38;2121224;27;48042;-52
2022/03/04 01:27:56;;;;;;;;;55.50;46.00;;;;;13.77;60.03;101073.72;2129615;27;47591;-53
2022/03/04 01:28:56;;;;;;;;;65.50;50.75;;;;;13.76;59.83;101063.97;2130134;27;47601;-54
2022/03/04 01:29:57;;;;;;;;;61.50;50.00;;;;;13.75;59.73;101071.09;2111339;27;45807;-50
2022/03/04 01:30:57;;;;;;;;;61.00;49.50;;;;;13.74;60.03;101074.69;2112184;27;47721;-53
2022/03/04 01:31:58;;;;;;;;;61.25;49.25;;;;;13.74;59.83;101073.81;2109468;27;47250;-52
2022/03/04 01:32:58;;;;;;;;;59.00;48.25;;;;;13.72;59.93;101071.19;2103572;28;47376;-51
2022/03/04 01:33:59;;;;;;;;;56.50;45.50;;;;;13.71;59.98;101073.88;2103005;27;48027;-49
2022/03/04 01:34:59;;;;;;;;;61.25;49.50;;;;;13.70;59.93;101072.13;2086181;28;48114;-49
2022/03/04 01:36:00;;;;;;;;;62.75;49.75;;;;;13.70;60.15;101072.13;2085952;28;47844;-49
2022/03/04 01:37:00;;;;;;;;;64.00;51.00;;;;;13.69;60.06;101071.25;2094375;28;47302;-52
2022/03/04 01:38:00;;;;;;;;;61.00;48.00;;;;;13.70;60.11;101072.13;2094827;28;47664;-52
2022/03/04 01:39:02;;;;;;;;;61.00;48.00;;;;;13.68;59.93;101077.53;2102970;28;47768;-48
2022/03/04 01:40:04;;;;;;;;;63.40;50.60;;;;;13.68;60.10;101072.19;2094691;28;47109;-51
2022/03/04 01:41:05;;;;;;;;;48.00;38.60;;;;;13.67;60.19;101075.78;2100798;27;47785;-49
2022/03/04 01:42:06;;;;;;;;;60.25;49.50;;;;;13.67;59.94;101070.44;2120044;27;47769;-53
2022/03/04 01:43:06;;;;;;;;;57.80;47.00;;;;;13.67;60.04;101075.78;2107014;27;47407;-49
2022/03/04 01:44:07;;;;;;;;;59.00;48.25;;;;;13.67;60.19;101067.78;2103215;28;47338;-52
2022/03/04 01:45:09;;;;;;;;;58.00;47.50;;;;;13.66;59.81;101068.69;2103410;28;48034;-52
2022/03/04 01:46:15;;;;;;;;;60.80;49.20;;;;;13.67;60.17;101072.22;2103275;28;47743;-51
2022/03/04 01:47:16;;;;;;;;;60.40;49.60;;;;;13.67;59.96;101067.78;2102976;28;47623;-54
2022/03/04 01:48:19;;;;;;;;;58.50;48.25;;;;;13.68;59.89;101071.31;2102940;28;47239;-50
2022/03/04 01:49:20;;;;;;;;;61.00;49.40;;;;;13.66;60.13;101070.50;2103066;28;47803;-53
2022/03/04 01:50:23;;;;;;;;;63.25;51.50;;;;;13.66;60.03;101060.69;2103623;28;47488;-51
2022/03/04 01:51:24;;;;;;;;;62.00;50.60;;;;;13.67;59.70;101072.22;2110623;27;47771;-51
2022/03/04 01:52:24;;;;;;;;;62.25;49.50;;;;;13.65;59.94;101056.28;2108274;27;47518;-51
2022/03/04 01:53:25;;;;;;;;;59.75;49.25;;;;;13.65;59.98;101064.28;2102936;28;47680;-52
2022/03/04 01:54:26;;;;;;;;;60.75;48.75;;;;;13.63;60.08;101066.13;2103202;28;47954;-53
2022/03/04 01:55:26;;;;;;;;;59.75;47.75;;;;;13.63;59.94;101059.91;2103031;28;47349;-51
2022/03/04 01:56:26;;;;;;;;;59.00;47.25;;;;;13.62;60.15;101058.16;2103030;28;46684;-51
2022/03/04 01:57:27;;;;;;;;;64.00;51.75;;;;;13.62;60.14;101061.72;2102974;28;47578;-50
2022/03/04 01:58:27;;;;;;;;;59.25;48.50;;;;;13.61;60.15;101059.97;2103414;28;47528;-51
2022/03/04 01:59:28;;;;;;;;;66.25;51.00;;;;;13.61;60.13;101057.28;2103047;28;47860;-52
2022/03/04 02:00:29;;;;;;;;;63.00;51.00;;;;;13.60;60.23;101054.69;2102834;28;47274;-54
2022/03/04 02:01:30;;;;;;;;;62.50;50.00;;;;;13.60;60.06;101054.69;2108291;27;47524;-51
2022/03/04 02:02:30;;;;;;;;;59.50;49.00;;;;;13.60;60.20;101065.34;2122724;27;48409;-53
2022/03/04 02:03:31;;;;;;;;;60.50;50.00;;;;;13.60;60.15;101062.69;2122536;27;47570;-50
2022/03/04 02:04:31;;;;;;;;;23.00;19.75;;;;;13.59;60.17;101064.44;2122958;27;47977;-52
2022/03/04 02:05:32;;;;;;;;;62.25;49.50;;;;;13.61;60.17;101061.75;2122295;27;47239;-54
2022/03/04 02:06:32;;;;;;;;;62.25;51.50;;;;;13.60;60.12;101066.22;2123051;27;47954;-50
2022/03/04 02:07:33;;;;;;;;;63.75;50.50;;;;;13.60;60.14;101057.34;2122510;27;47515;-53
2022/03/04 02:08:34;;;;;;;;;56.80;46.20;;;;;13.59;60.22;101056.44;2122789;27;47352;-51
2022/03/04 02:09:34;;;;;;;;;61.75;49.25;;;;;13.58;60.19;101057.38;2122571;27;48175;-52
2022/03/04 02:10:35;;;;;;;;;63.00;49.50;;;;;13.56;60.00;101048.53;2122242;27;47815;-53
2022/03/04 02:11:35;;;;;;;;;59.00;49.00;;;;;13.54;60.20;101048.59;2122516;27;47959;-52
2022/03/04 02:12:36;;;;;;;;;61.25;49.50;;;;;13.53;60.04;101041.50;2122315;27;47777;-54
2022/03/04 02:13:38;;;;;;;;;62.40;50.80;;;;;13.54;60.28;101045.91;2122882;27;48446;-51
2022/03/04 02:14:38;;;;;;;;;60.80;49.20;;;;;13.54;60.14;101053.03;2130506;27;47997;-53
2022/03/04 02:15:39;;;;;;;;;61.50;49.00;;;;;13.53;60.25;101044.16;2130753;27;47276;-51
2022/03/04 02:16:51;;;;;;;;;62.00;49.75;;;;;13.53;60.13;101044.16;2104150;28;47716;-52
2022/03/04 02:17:52;;;;;;;;;62.00;50.40;;;;;13.53;60.29;101051.31;2109619;27;47667;-51
2022/03/04 02:18:53;;;;;;;;;63.75;50.00;;;;;13.53;60.12;101044.16;2130920;27;47122;-53
2022/03/04 02:19:54;;;;;;;;;65.00;50.25;;;;;13.53;60.23;101043.31;2121831;27;47200;-52
2022/03/04 02:20:59;;;;;;;;;62.25;51.00;;;;;13.53;60.24;101045.97;2121976;27;47483;-48
2022/03/04 02:22:02;;;;;;;;;63.20;50.60;;;;;13.53;60.42;101040.63;2130742;27;47454;-50
2022/03/04 02:23:02;;;;;;;;;62.20;50.40;;;;;13.49;60.45;101038.97;2130851;27;48033;-52
2022/03/04 02:24:04;;;;;;;;;59.75;48.50;;;;;13.49;60.37;101038.97;2130781;27;47485;-53
2022/03/04 02:25:05;;;;;;;;;59.20;47.20;;;;;13.47;60.21;101040.81;2123871;27;47783;-50
2022/03/04 02:26:06;;;;;;;;;62.20;50.60;;;;;13.45;60.28;101040.84;2122354;27;47820;-50
2022/03/04 02:27:08;;;;;;;;;62.25;50.00;;;;;13.45;60.23;101040.84;2126440;27;47687;-53
2022/03/04 02:28:09;;;;;;;;;63.80;51.20;;;;;13.43;60.27;101034.69;2131036;27;48168;-51
2022/03/04 02:29:10;;;;;;;;;62.40;51.00;;;;;13.43;60.46;101040.00;2123529;27;47574;-50
2022/03/04 02:30:11;;;;;;;;;61.40;50.00;;;;;13.42;60.54;101038.25;2122266;27;47964;-53
2022/03/04 02:31:16;;;;;;;;;64.00;51.25;;;;;13.41;60.49;101039.19;2122362;27;48095;-50
2022/03/04 02:32:17;;;;;;;;;62.00;48.20;;;;;13.41;60.43;101038.31;2122429;27;47755;-52
2022/03/04 02:33:18;;;;;;;;;65.40;52.60;;;;;13.40;60.43;101037.44;2122433;27;47706;-52
2022/03/04 02:34:18;;;;;;;;;64.50;52.00;;;;;13.40;60.50;101032.09;2122064;27;47938;-49
2022/03/04 02:35:19;;;;;;;;;62.75;51.75;;;;;13.40;60.45;101034.78;2122235;27;47434;-53
2022/03/04 02:36:19;;;;;;;;;62.50;49.75;;;;;13.41;60.43;101036.53;2122206;27;47829;-51
2022/03/04 02:37:20;;;;;;;;;62.25;49.75;;;;;13.41;60.58;101043.66;2122443;27;47488;-50
2022/03/04 02:38:20;;;;;;;;;66.50;51.00;;;;;13.42;60.42;101034.72;2122184;27;48029;-54
2022/03/04 02:39:21;;;;;;;;;66.75;52.25;;;;;13.41;60.67;101040.97;2122048;27;47614;-54
2022/03/04 02:40:22;;;;;;;;;63.75;51.50;;;;;13.41;60.53;101043.66;2122279;27;47674;-52
2022/03/04 02:41:22;;;;;;;;;64.60;51.20;;;;;13.40;60.46;101044.56;2122308;27;46459;-53
2022/03/04 02:42:23;;;;;;;;;63.75;51.25;;;;;13.38;60.62;101036.63;2122297;27;48295;-52
2022/03/04 02:43:23;;;;;;;;;62.75;50.50;;;;;13.39;60.56;101042.81;2122447;27;47625;-49
2022/03/04 02:44:23;;;;;;;;;64.50;51.00;;;;;13.38;60.55;101041.94;2129030;27;47276;-50
2022/03/04 02:45:25;;;;;;;;;63.25;51.00;;;;;13.37;60.63;101045.53;2131079;27;48083;-50
2022/03/04 02:46:25;;;;;;;;;63.20;51.60;;;;;13.37;60.74;101037.53;2131048;27;47442;-53
2022/03/04 02:47:26;;;;;;;;;64.00;51.50;;;;;13.36;60.51;101043.78;2130705;27;47412;-50
2022/03/04 02:48:26;;;;;;;;;62.00;51.00;;;;;13.36;60.56;101048.25;2103803;28;48327;-52
2022/03/04 02:49:26;;;;;;;;;67.50;54.50;;;;;13.37;60.72;101044.66;2104356;28;47519;-49
2022/03/04 02:50:27;;;;;;;;;68.00;55.50;;;;;13.37;60.78;101042.00;2130824;27;46441;-50
2022/03/04 02:51:27;;;;;;;;;69.00;52.50;;;;;13.37;60.74;101044.66;2122522;27;47654;-52
2022/03/04 02:52:28;;;;;;;;;67.00;54.00;;;;;13.36;60.74;101042.91;2122233;27;48569;-50
2022/03/04 02:53:28;;;;;;;;;66.50;53.50;;;;;13.35;60.69;101050.03;2122125;27;47425;-49
2022/03/04 02:54:29;;;;;;;;;64.25;51.75;;;;;13.35;60.79;101044.72;2122510;27;47258;-50
2022/03/04 02:55:29;;;;;;;;;65.00;51.00;;;;;13.36;60.71;101050.91;2127417;27;47598;-54
2022/03/04 02:56:29;;;;;;;;;67.00;50.75;;;;;13.35;60.69;101049.16;2131205;27;47488;-51
2022/03/04 02:57:30;;;;;;;;;68.75;57.00;;;;;13.34;60.71;101050.06;2122167;27;47813;-51
2022/03/04 02:58:31;;;;;;;;;64.50;51.75;;;;;13.32;60.63;101046.56;2122028;27;48222;-52
2022/03/04 02:59:31;;;;;;;;;63.50;53.00;;;;;13.32;60.79;101051.88;2103639;28;48118;-54
2022/03/04 03:00:32;;;;;;;;;67.00;53.25;;;;;13.32;60.76;101044.75;2104093;28;47252;-54
2022/03/04 03:01:32;;;;;;;;;68.50;53.25;;;;;13.31;60.82;101053.69;2121846;27;48495;-52
2022/03/04 03:02:33;;;;;;;;;69.25;58.00;;;;;13.31;60.79;101053.69;2122380;27;45585;-54
2022/03/04 03:03:34;;;;;;;;;65.75;52.50;;;;;13.32;60.81;101059.88;2122263;27;48062;-51
2022/03/04 03:04:34;;;;;;;;;69.80;59.20;;;;;13.32;60.59;101055.44;2122098;27;47523;-54
2022/03/04 03:05:35;;;;;;;;;65.75;52.25;;;;;13.33;60.79;101056.31;2130699;27;47243;-53
2022/03/04 03:06:35;;;;;;;;;67.00;53.00;;;;;13.32;60.79;101051.88;2127075;27;48252;-52
2022/03/04 03:07:36;;;;;;;;;67.50;52.75;;;;;13.33;60.84;101057.16;2121981;27;47660;-51
2022/03/04 03:08:37;;;;;;;;;69.75;54.75;;;;;13.32;60.71;101051.88;2121941;27;48112;-50
2022/03/04 03:09:37;;;;;;;;;69.00;56.00;;;;;13.31;60.64;101050.13;2122025;27;47842;-54
2022/03/04 03:10:38;;;;;;;;;66.50;53.00;;;;;13.31;60.89;101052.81;2121842;27;47739;-51
2022/03/04 03:11:38;;;;;;;;;68.00;54.25;;;;;13.29;60.76;101050.19;2122248;27;47480;-51
2022/03/04 03:12:40;;;;;;;;;68.25;54.00;;;;;13.29;60.74;101055.53;2121894;27;47430;-53
2022/03/04 03:13:40;;;;;;;;;67.60;53.60;;;;;13.29;60.65;101050.19;2123717;27;48305;-51
2022/03/04 03:14:41;;;;;;;;;68.00;53.00;;;;;13.29;60.83;101044.84;2130544;27;47468;-53
2022/03/04 03:15:41;;;;;;;;;66.50;53.50;;;;;13.29;60.79;101052.84;2131143;27;47156;-54
2022/03/04 03:16:42;;;;;;;;;67.50;53.50;;;;;13.28;60.95;101047.56;2130344;27;47569;-53
2022/03/04 03:17:42;;;;;;;;;64.25;52.75;;;;;13.26;60.95;101042.28;2103825;28;47471;-53
2022/03/04 03:18:43;;;;;;;;;71.75;56.25;;;;;13.25;60.89;101053.88;2099411;28;47192;-54
2022/03/04 03:19:43;;;;;;;;;69.00;55.00;;;;;13.24;60.94;101050.31;2122011;27;48326;-52
2022/03/04 03:20:44;;;;;;;;;66.75;54.00;;;;;13.22;60.96;101052.16;2130145;27;47632;-50
2022/03/04 03:21:44;;;;;;;;;66.50;53.75;;;;;13.21;60.84;101055.75;2130752;27;47465;-53
2022/03/04 03:22:45;;;;;;;;;70.50;57.00;;;;;13.21;61.16;101050.41;2130396;27;47325;-53
2022/03/04 03:23:45;;;;;;;;;66.75;53.50;;;;;13.21;60.79;101053.09;2115233;27;47795;-51
2022/03/04 03:24:47;;;;;;;;;63.75;51.50;;;;;13.21;61.01;101054.84;2115838;27;47630;-53
2022/03/04 03:25:47;;;;;;;;;64.75;52.50;;;;;13.20;60.99;101048.63;2121993;27;46782;-54
2022/03/04 03:26:48;;;;;;;;;68.00;54.75;;;;;13.20;61.07;101053.97;2126794;27;47820;-52
2022/03/04 03:27:48;;;;;;;;;64.50;51.00;;;;;13.22;61.13;101052.16;2130795;27;47856;-53
2022/03/04 03:28:49;;;;;;;;;68.25;54.25;;;;;13.23;61.14;101058.38;2122036;27;47097;-54
2022/03/04 03:29:49;;;;;;;;;69.50;54.00;;;;;13.24;61.02;101054.78;2106503;27;48220;-53
2022/03/04 03:30:50;;;;;;;;;68.50;56.00;;;;;13.24;61.10;101058.31;2112167;27;47553;-51
2022/03/04 03:31:50;;;;;;;;;69.00;55.75;;;;;13.24;61.04;101058.31;2123748;27;47732;-53
2022/03/04 03:32:51;;;;;;;;;68.75;56.25;;;;;13.25;61.04;101059.19;2121774;27;47547;-54
2022/03/04 03:33:51;;;;;;;;;68.75;53.75;;;;;13.26;61.09;101058.28;2103849;28;48253;-54
2022/03/04 03:34:52;;;;;;;;;65.75;52.75;;;;;13.24;60.88;101061.00;2108281;27;47529;-54
2022/03/04 03:35:55;;;;;;;;;66.75;53.75;;;;;13.25;60.93;101061.88;2130490;27;47505;-52
2022/03/04 03:36:55;;;;;;;;;67.80;54.40;;;;;13.25;60.74;101061.88;2121755;27;47189;-53
2022/03/04 03:37:56;;;;;;;;;63.50;51.50;;;;;13.25;61.02;101064.53;2121952;27;47536;-52
2022/03/04 03:38:56;;;;;;;;;71.00;53.00;;;;;13.26;61.09;101063.59;2122529;27;47380;-53
2022/03/04 03:39:57;;;;;;;;;62.50;50.25;;;;;13.25;60.98;101056.53;2121679;27;47719;-51
2022/03/04 03:40:57;;;;;;;;;67.75;53.50;;;;;13.26;61.04;101060.94;2103654;28;47475;-54
2022/03/04 03:41:58;;;;;;;;;64.75;52.50;;;;;13.27;61.15;101061.81;2103754;28;47837;-53
2022/03/04 03:42:58;;;;;;;;;69.50;55.25;;;;;13.28;60.98;101060.91;2121992;27;47981;-52
2022/03/04 03:43:59;;;;;;;;;67.75;54.00;;;;;13.28;60.80;101060.91;2129902;27;47624;-52
2022/03/04 03:44:59;;;;;;;;;64.75;52.00;;;;;13.28;61.00;101059.09;2130930;27;47932;-53
2022/03/04 03:46:00;;;;;;;;;67.00;53.00;;;;;13.28;60.90;101061.78;2121456;27;47733;-53
2022/03/04 03:47:00;;;;;;;;;66.25;53.00;;;;;13.29;61.04;101058.19;2121160;27;47604;-50
2022/03/04 03:48:01;;;;;;;;;66.50;52.00;;;;;13.28;60.93;101059.09;2122825;27;47467;-50
2022/03/04 03:49:01;;;;;;;;;61.00;50.00;;;;;13.28;60.89;101064.44;2103484;28;47484;-50
2022/03/04 03:50:03;;;;;;;;;63.00;49.25;;;;;13.28;61.08;101063.56;2095362;28;47075;-51
2022/03/04 03:51:04;;;;;;;;;64.00;52.00;;;;;13.28;60.93;101068.91;2121176;27;47992;-50
2022/03/04 03:52:05;;;;;;;;;62.75;51.00;;;;;13.28;60.87;101061.78;2130289;27;48527;-52
2022/03/04 03:53:08;;;;;;;;;64.20;52.40;;;;;13.28;60.94;101064.44;2127232;27;47855;-49
2022/03/04 03:54:08;;;;;;;;;63.60;51.20;;;;;13.28;60.87;101075.09;2121573;27;47716;-51
2022/03/04 03:55:09;;;;;;;;;59.75;48.25;;;;;13.29;60.92;101067.97;2128688;27;47363;-53
2022/03/04 03:56:09;;;;;;;;;63.50;51.75;;;;;13.30;60.98;101064.38;2127850;27;47645;-50
2022/03/04 03:57:10;;;;;;;;;63.00;49.00;;;;;13.29;60.90;101062.66;2121799;27;47853;-54
2022/03/04 03:58:10;;;;;;;;;58.00;48.50;;;;;13.29;61.01;101066.19;2121667;27;47516;-53
2022/03/04 03:59:11;;;;;;;;;63.00;49.50;;;;;13.30;60.81;101067.06;2121810;27;48125;-54
2022/03/04 04:00:12;;;;;;;;;56.75;46.25;;;;;13.30;60.82;101061.72;2121844;27;47649;-53
2022/03/04 04:01:12;;;;;;;;;59.75;48.00;;;;;13.30;60.83;101062.59;2121743;27;47892;-54
2022/03/04 04:02:12;;;;;;;;;61.25;47.25;;;;;13.30;60.81;101059.94;2121708;27;47410;-54
2022/03/04 04:03:13;;;;;;;;;60.00;49.25;;;;;13.31;60.96;101068.81;2122172;27;47741;-52
2022/03/04 04:04:13;;;;;;;;;60.25;49.25;;;;;13.29;60.70;101066.19;2121620;27;47871;-54
2022/03/04 04:05:14;;;;;;;;;61.00;47.75;;;;;13.29;60.62;101062.66;2121680;27;47414;-50
2022/03/04 04:06:14;;;;;;;;;62.75;51.25;;;;;13.30;60.60;101065.25;2121783;27;47646;-51
2022/03/04 04:07:15;;;;;;;;;57.25;47.75;;;;;13.30;60.81;101067.06;2122043;27;47723;-50
2022/03/04 04:08:16;;;;;;;;;58.00;47.00;;;;;13.31;60.67;101066.13;2121751;27;47679;-50
2022/03/04 04:09:17;;;;;;;;;57.75;46.50;;;;;13.31;60.60;101064.34;2121891;27;48260;-51
2022/03/04 04:10:17;;;;;;;;;61.25;49.50;;;;;13.31;60.75;101068.81;2121687;27;47791;-50
2022/03/04 04:11:18;;;;;;;;;58.75;48.50;;;;;13.31;60.72;101074.13;2121673;27;47992;-53
2022/03/04 04:12:18;;;;;;;;;59.00;47.75;;;;;13.32;60.66;101081.22;2121483;27;47532;-54
2022/03/04 04:13:18;;;;;;;;;56.00;44.75;;;;;13.32;60.63;101079.41;2121630;27;47181;-49
2022/03/04 04:14:19;;;;;;;;;58.00;44.75;;;;;13.31;60.62;101084.78;2121796;27;47040;-51
2022/03/04 04:15:19;;;;;;;;;57.00;46.75;;;;;13.32;60.61;101083.88;2129234;27;47764;-51
2022/03/04 04:16:20;;;;;;;;;55.75;45.75;;;;;13.29;60.55;101079.50;2127688;27;47558;-50
2022/03/04 04:17:20;;;;;;;;;62.50;50.00;;;;;13.29;60.50;101079.50;2121753;27;47173;-54
2022/03/04 04:18:21;;;;;;;;;58.50;48.00;;;;;13.30;60.51;101075.06;2121474;27;47163;-53
2022/03/04 04:19:23;;;;;;;;;69.75;53.25;;;;;13.28;60.58;101077.75;2121656;27;47368;-53
2022/03/04 04:20:23;;;;;;;;;71.20;57.60;;;;;13.26;60.70;101082.25;2112512;27;47673;-51
2022/03/04 04:21:25;;;;;;;;;63.00;51.00;;;;;13.25;60.67;101073.41;2116864;27;47787;-51
2022/03/04 04:22:25;;;;;;;;;56.20;46.20;;;;;13.23;60.61;101077.91;2130395;27;47457;-54
2022/03/04 04:23:25;;;;;;;;;62.00;49.75;;;;;13.24;60.65;101076.97;2121098;27;48104;-51
2022/03/04 04:24:26;;;;;;;;;58.25;47.00;;;;;13.24;60.60;101081.44;2110781;27;47812;-50
2022/03/04 04:25:26;;;;;;;;;53.75;45.25;;;;;13.24;60.86;101087.63;2112297;27;47606;-50
2022/03/04 04:26:27;;;;;;;;;56.00;45.75;;;;;13.25;60.67;101080.53;2127489;27;47540;-52
2022/03/04 04:27:27;;;;;;;;;60.00;47.50;;;;;13.24;60.41;101076.97;2130043;27;48177;-54
2022/03/04 04:28:27;;;;;;;;;57.00;46.00;;;;;13.23;60.48;101079.69;2130306;27;47070;-54
2022/03/04 04:29:29;;;;;;;;;56.25;45.50;;;;;13.22;60.56;101077.94;2130110;27;47554;-55
2022/03/04 04:30:30;;;;;;;;;55.00;44.40;;;;;13.19;60.52;101081.53;2130285;27;48118;-54
2022/03/04 04:31:32;;;;;;;;;59.75;49.00;;;;;13.19;60.69;101081.53;2130178;27;47975;-54
2022/03/04 04:32:33;;;;;;;;;62.00;50.40;;;;;13.19;60.69;101078.88;2122421;27;47792;-53
2022/03/04 04:33:33;;;;;;;;;58.00;47.75;;;;;13.19;60.68;101092.19;2103206;28;47664;-50
2022/03/04 04:34:33;;;;;;;;;61.00;48.75;;;;;13.20;60.74;101087.75;2103430;28;47283;-49
2022/03/04 04:35:34;;;;;;;;;61.25;48.75;;;;;13.19;60.72;101081.53;2121130;27;47275;-53
2022/03/04 04:36:34;;;;;;;;;62.50;49.25;;;;;13.20;60.75;101085.06;2121942;27;47144;-53